Time;durP1;ratioP1;P1;durP2;ratioP2;P2;SDS_P1;SDS_P2;PMS_P1;PMS_P2;Temp;Humidity;BMP_temperature;BMP_pressure;BME280_temperature;BME280_humidity;BME280_pressure;Samples;Min_cycle;Max_cycle;Signal;HPM_P1;HPM_P2
2023/03/24 00:01:54;;;;;;;9.23;3.90;;;11.70;99.90;;;;;;5035910;28;20029;-66
2023/03/24 00:04:21;;;;;;;9.88;4.53;;;11.60;99.90;;;;;;5036450;28;20120;-66
2023/03/24 00:06:48;;;;;;;10.18;4.22;;;11.60;99.90;;;;;;5047955;28;20040;-66
2023/03/24 00:09:15;;;;;;;9.25;3.88;;;11.60;99.90;;;;;;5046127;28;20122;-66
2023/03/24 00:11:41;;;;;;;9.75;4.32;;;11.60;99.90;;;;;;5044887;28;20040;-66
2023/03/24 00:14:10;;;;;;;9.70;4.43;;;11.60;99.90;;;;;;5050007;28;20044;-66
2023/03/24 00:16:41;;;;;;;7.43;3.95;;;11.60;99.90;;;;;;5043712;28;20124;-66
2023/03/24 00:19:08;;;;;;;12.00;4.10;;;11.60;99.90;;;;;;5050674;28;20044;-66
2023/03/24 00:21:33;;;;;;;10.95;4.15;;;11.60;99.90;;;;;;5045381;28;20069;-66
2023/03/24 00:24:00;;;;;;;10.45;3.88;;;11.60;99.90;;;;;;5047730;28;20091;-66
2023/03/24 00:26:27;;;;;;;6.85;3.78;;;11.60;99.90;;;;;;5051422;28;20090;-64
2023/03/24 00:28:53;;;;;;;9.50;3.80;;;11.60;99.90;;;;;;5043528;28;20414;-65
2023/03/24 00:31:19;;;;;;;9.18;4.05;;;11.60;99.90;;;;;;5052253;28;20041;-66
2023/03/24 00:33:49;;;;;;;11.07;4.65;;;11.60;99.90;;;;;;5051897;28;20036;-65
2023/03/24 00:36:20;;;;;;;9.70;4.07;;;12.00;99.90;;;;;;5040406;28;20048;-66
2023/03/24 00:38:47;;;;;;;7.97;3.83;;;11.60;99.90;;;;;;5040098;28;20089;-66
2023/03/24 00:41:13;;;;;;;9.05;3.72;;;11.60;99.90;;;;;;5044873;28;20151;-65
2023/03/24 00:43:39;;;;;;;5.82;3.47;;;11.60;99.90;;;;;;5046345;28;20116;-65
2023/03/24 00:46:07;;;;;;;9.43;3.80;;;11.60;99.90;;;;;;5043235;28;20121;-65
2023/03/24 00:48:37;;;;;;;10.93;3.65;;;11.60;99.90;;;;;;5050509;28;20499;-65
2023/03/24 00:51:06;;;;;;;8.70;3.95;;;11.60;99.90;;;;;;5054382;28;20044;-64
2023/03/24 00:53:33;;;;;;;7.85;3.20;;;11.60;99.90;;;;;;5046820;28;20167;-65
2023/03/24 00:56:01;;;;;;;10.00;3.95;;;11.60;99.90;;;;;;5040211;28;20495;-65
2023/03/24 00:58:28;;;;;;;8.55;3.50;;;11.60;99.90;;;;;;5048221;28;20045;-67
2023/03/24 01:00:56;;;;;;;8.75;3.70;;;11.60;99.90;;;;;;5057728;28;20043;-65
2023/03/24 01:03:26;;;;;;;7.53;3.47;;;11.60;99.90;;;;;;5047988;28;20033;-66
2023/03/24 01:06:00;;;;;;;8.60;3.53;;;11.60;99.90;;;;;;5036023;28;20041;-65
2023/03/24 01:08:27;;;;;;;8.38;3.58;;;11.60;99.90;;;;;;5041340;28;20029;-64
2023/03/24 01:10:53;;;;;;;6.85;3.50;;;11.70;99.90;;;;;;5042712;28;20045;-64
2023/03/24 01:13:22;;;;;;;6.65;3.08;;;11.60;99.90;;;;;;5048369;28;20059;-64
2023/03/24 01:15:48;;;;;;;8.82;3.63;;;11.60;99.90;;;;;;5048995;28;20517;-67
2023/03/24 01:18:16;;;;;;;6.82;3.22;;;11.60;99.90;;;;;;5035588;28;20519;-64
2023/03/24 01:20:44;;;;;;;11.80;4.22;;;11.60;99.90;;;;;;5042483;28;20056;-65
2023/03/24 01:23:13;;;;;;;7.63;3.50;;;11.60;99.90;;;;;;5036310;28;20073;-65
2023/03/24 01:25:41;;;;;;;7.20;3.55;;;11.60;99.90;;;;;;5043679;28;20488;-64
2023/03/24 01:28:07;;;;;;;9.65;3.67;;;11.60;99.90;;;;;;5037105;28;20045;-64
2023/03/24 01:30:33;;;;;;;8.30;3.40;;;11.60;99.90;;;;;;5036335;28;20397;-64
2023/03/24 01:32:59;;;;;;;8.38;3.33;;;11.60;99.90;;;;;;5047482;28;20114;-64
2023/03/24 01:35:25;;;;;;;9.82;3.88;;;11.60;99.90;;;;;;5045540;28;20037;-66
2023/03/24 01:37:52;;;;;;;6.90;3.65;;;11.70;99.90;;;;;;5034824;28;20068;-65
2023/03/24 01:40:24;;;;;;;7.93;3.63;;;11.60;99.90;;;;;;5036010;28;20036;-64
2023/03/24 01:42:50;;;;;;;8.13;3.80;;;11.70;99.90;;;;;;5037797;28;20051;-64
2023/03/24 01:45:37;;;;;;;7.47;3.38;;;11.70;99.90;;;;;;5046569;28;20052;-64
2023/03/24 01:48:04;;;;;;;7.10;3.72;;;11.60;99.90;;;;;;5042461;28;20081;-65
2023/03/24 01:50:31;;;;;;;7.50;3.85;;;11.70;99.90;;;;;;5037266;28;20041;-64
2023/03/24 01:52:57;;;;;;;9.65;4.05;;;11.70;99.90;;;;;;5036533;28;20041;-67
2023/03/24 01:55:23;;;;;;;5.88;3.92;;;11.70;99.90;;;;;;5038039;28;20052;-64
2023/03/24 01:57:52;;;;;;;7.07;3.65;;;11.70;99.90;;;;;;5045710;28;20399;-68
2023/03/24 02:00:20;;;;;;;5.95;4.00;;;11.70;99.90;;;;;;5045578;28;20025;-64
2023/03/24 02:02:53;;;;;;;5.55;3.38;;;11.70;99.90;;;;;;5039362;28;20033;-64
2023/03/24 02:05:23;;;;;;;7.53;4.22;;;11.70;99.90;;;;;;5045632;28;20120;-66
2023/03/24 02:07:55;;;;;;;8.77;4.10;;;11.80;99.90;;;;;;5032790;28;20045;-66
2023/03/24 02:10:22;;;;;;;10.73;3.97;;;11.80;99.90;;;;;;5037738;28;20901;-64
2023/03/24 02:12:47;;;;;;;6.25;3.78;;;11.80;99.90;;;;;;5038937;28;20146;-65
2023/03/24 02:15:15;;;;;;;8.63;3.60;;;11.80;99.90;;;;;;5050952;28;20144;-67
2023/03/24 02:17:41;;;;;;;10.43;4.18;;;11.80;99.90;;;;;;5049889;28;20170;-66
2023/03/24 02:20:35;;;;;;;6.65;3.95;;;11.80;99.90;;;;;;5046279;28;20132;-64
2023/03/24 02:23:14;;;;;;;6.38;3.80;;;11.80;99.90;;;;;;5029116;28;20045;-67
2023/03/24 02:26:09;;;;;;;7.35;3.92;;;11.80;99.90;;;;;;5041367;28;20041;-64
2023/03/24 02:28:57;;;;;;;7.43;3.55;;;11.80;99.90;;;;;;5040795;28;20038;-64
2023/03/24 02:31:39;;;;;;;6.03;3.20;;;11.90;99.90;;;;;;5054590;28;20124;-65
2023/03/24 02:34:34;;;;;;;6.07;3.55;;;11.90;99.90;;;;;;5055484;28;20104;-64
2023/03/24 02:37:11;;;;;;;7.45;3.38;;;11.80;99.90;;;;;;5042262;28;20051;-65
2023/03/24 02:39:56;;;;;;;7.25;3.42;;;11.90;99.90;;;;;;5042550;28;20064;-64
2023/03/24 02:42:40;;;;;;;7.95;3.33;;;11.90;99.90;;;;;;5053967;28;20044;-64
2023/03/24 02:45:30;;;;;;;6.35;3.72;;;11.90;99.90;;;;;;5033263;28;20098;-68
2023/03/24 02:48:28;;;;;;;7.00;4.18;;;11.90;99.90;;;;;;5044295;28;20072;-64
2023/03/24 02:51:14;;;;;;;4.95;3.35;;;11.90;99.90;;;;;;5035618;28;20610;-64
2023/03/24 02:54:11;;;;;;;8.05;4.15;;;11.90;99.90;;;;;;5043552;28;20107;-64
2023/03/24 02:57:03;;;;;;;6.57;3.83;;;11.90;99.90;;;;;;5044590;28;20048;-64
2023/03/24 02:59:43;;;;;;;6.45;3.72;;;12.00;99.90;;;;;;5030193;28;20045;-67
2023/03/24 03:02:19;;;;;;;7.43;3.88;;;12.00;99.90;;;;;;5048019;28;20044;-66
2023/03/24 03:04:48;;;;;;;6.35;3.67;;;11.90;99.90;;;;;;5049789;28;20036;-65
2023/03/24 03:07:20;;;;;;;7.65;3.70;;;11.90;99.90;;;;;;5033666;28;20042;-64
2023/03/24 03:10:14;;;;;;;9.57;4.40;;;11.90;99.90;;;;;;5044308;28;20064;-64
2023/03/24 03:12:41;;;;;;;6.22;3.72;;;11.90;99.90;;;;;;5013181;28;20049;-65
2023/03/24 03:15:12;;;;;;;6.57;4.10;;;11.90;99.90;;;;;;5047833;28;20037;-66
2023/03/24 03:17:47;;;;;;;6.70;3.80;;;12.00;99.90;;;;;;5044651;28;20077;-65
2023/03/24 03:20:19;;;;;;;8.90;4.13;;;11.90;99.90;;;;;;5040457;28;20124;-64
2023/03/24 03:22:50;;;;;;;6.78;3.63;;;11.90;99.90;;;;;;5053578;28;20199;-66
2023/03/24 03:25:23;;;;;;;5.80;3.88;;;12.00;99.90;;;;;;5037380;28;20091;-65
2023/03/24 03:27:51;;;;;;;7.15;3.72;;;12.00;99.90;;;;;;5044135;28;20110;-64
2023/03/24 03:30:28;;;;;;;5.63;3.70;;;12.00;99.90;;;;;;5045344;28;20399;-66
2023/03/24 03:33:05;;;;;;;4.82;3.05;;;12.00;99.90;;;;;;5042460;28;20037;-64
2023/03/24 03:36:08;;;;;;;5.45;3.45;;;12.00;99.90;;;;;;5041482;28;20436;-64
2023/03/24 03:38:48;;;;;;;5.90;3.60;;;12.10;99.90;;;;;;5035461;28;20120;-65
2023/03/24 03:41:17;;;;;;;4.60;2.88;;;12.20;99.90;;;;;;5033409;28;20041;-64
2023/03/24 03:43:44;;;;;;;7.28;3.13;;;12.20;99.90;;;;;;5045549;28;20173;-65
2023/03/24 03:46:09;;;;;;;7.97;2.50;;;12.20;99.90;;;;;;5051831;28;20037;-65
2023/03/24 03:48:37;;;;;;;7.47;1.98;;;12.10;99.90;;;;;;5045749;28;20443;-64
2023/03/24 03:51:02;;;;;;;5.00;1.90;;;12.00;99.90;;;;;;5050508;28;20040;-64
2023/03/24 03:53:48;;;;;;;10.32;2.10;;;11.90;99.90;;;;;;5048328;28;20034;-64
2023/03/24 03:56:18;;;;;;;6.10;1.63;;;11.80;99.90;;;;;;5042095;28;20495;-65
2023/03/24 03:58:46;;;;;;;6.22;1.75;;;11.70;99.90;;;;;;5042208;28;20111;-64
2023/03/24 04:01:15;;;;;;;6.35;2.10;;;11.70;99.90;;;;;;5043866;28;20032;-64
2023/03/24 04:04:03;;;;;;;6.53;2.13;;;11.10;99.90;;;;;;5047199;28;20407;-64
2023/03/24 04:06:53;;;;;;;6.93;1.75;;;11.50;99.90;;;;;;5042558;28;20120;-64
2023/03/24 04:09:39;;;;;;;6.50;2.13;;;11.50;99.90;;;;;;5044604;28;20114;-64
2023/03/24 04:12:10;;;;;;;6.55;1.98;;;11.30;99.90;;;;;;4996151;28;20519;-66
2023/03/24 04:14:48;;;;;;;6.80;1.73;;;11.30;99.90;;;;;;5052472;28;20047;-64
2023/03/24 04:17:38;;;;;;;5.97;1.50;;;11.20;99.90;;;;;;5042499;28;20072;-63
2023/03/24 04:20:31;;;;;;;4.72;1.67;;;11.10;99.90;;;;;;5045798;28;20041;-63
2023/03/24 04:23:25;;;;;;;5.45;1.60;;;11.00;99.90;;;;;;5047782;28;20036;-66
2023/03/24 04:26:09;;;;;;;7.65;1.75;;;11.00;99.90;;;;;;5038889;28;20044;-66
2023/03/24 04:28:46;;;;;;;8.27;1.75;;;11.00;99.90;;;;;;5033557;28;20033;-63
2023/03/24 04:31:25;;;;;;;7.53;1.83;;;10.90;99.90;;;;;;5042068;28;20048;-63
2023/03/24 04:34:19;;;;;;;7.65;1.88;;;10.90;99.90;;;;;;5047068;28;20037;-65
2023/03/24 04:36:55;;;;;;;4.97;1.70;;;10.80;99.90;;;;;;5043566;28;20038;-67
2023/03/24 04:39:27;;;;;;;7.32;2.45;;;10.90;99.90;;;;;;5048851;28;20088;-64
2023/03/24 04:41:56;;;;;;;12.18;2.33;;;10.80;99.90;;;;;;5042767;28;20499;-64
2023/03/24 04:44:22;;;;;;;10.20;3.03;;;10.80;99.90;;;;;;5052072;28;20495;-65
2023/03/24 04:46:56;;;;;;;6.72;2.20;;;10.80;99.90;;;;;;5026354;28;20491;-64
2023/03/24 04:49:24;;;;;;;12.57;2.83;;;10.70;99.90;;;;;;5051616;28;20090;-65
2023/03/24 04:51:50;;;;;;;9.43;2.47;;;10.80;99.90;;;;;;5044987;28;20059;-66
2023/03/24 04:54:18;;;;;;;8.50;2.85;;;10.70;99.90;;;;;;5050829;28;20136;-64
2023/03/24 04:56:48;;;;;;;10.98;2.33;;;10.70;99.90;;;;;;5043924;28;20096;-66
2023/03/24 04:59:14;;;;;;;10.48;2.35;;;10.70;99.90;;;;;;5047770;28;20053;-63
2023/03/24 05:01:48;;;;;;;10.20;2.85;;;10.60;99.90;;;;;;5043918;28;20064;-63
2023/03/24 05:04:14;;;;;;;7.57;2.63;;;10.60;99.90;;;;;;5057193;28;20396;-63
2023/03/24 05:06:40;;;;;;;9.85;2.38;;;10.50;99.90;;;;;;5048832;28;20040;-64
2023/03/24 05:09:06;;;;;;;11.77;2.60;;;10.50;99.90;;;;;;5043594;28;20037;-64
2023/03/24 05:11:32;;;;;;;14.00;3.08;;;10.40;99.90;;;;;;5043641;28;20051;-66
2023/03/24 05:13:57;;;;;;;13.23;2.33;;;10.40;99.90;;;;;;5049528;28;20484;-63
2023/03/24 05:16:23;;;;;;;9.68;2.50;;;10.30;99.90;;;;;;5046809;28;20411;-64
2023/03/24 05:18:48;;;;;;;12.35;2.63;;;10.30;99.90;;;;;;5045106;28;20044;-64
2023/03/24 05:21:14;;;;;;;11.70;2.55;;;10.30;99.90;;;;;;5040223;28;20033;-66
2023/03/24 05:23:40;;;;;;;9.75;2.67;;;10.20;99.90;;;;;;5045423;28;20029;-63
2023/03/24 05:26:06;;;;;;;11.90;2.03;;;10.20;99.90;;;;;;5046143;28;20040;-64
2023/03/24 05:28:32;;;;;;;9.98;2.40;;;10.20;99.90;;;;;;5032856;28;20045;-64
2023/03/24 05:30:57;;;;;;;10.85;2.72;;;10.10;99.90;;;;;;5049347;28;20053;-64
2023/03/24 05:33:23;;;;;;;8.18;2.03;;;10.10;99.90;;;;;;5050389;28;20033;-65
2023/03/24 05:35:48;;;;;;;7.55;2.25;;;10.00;99.90;;;;;;5049318;28;20067;-63
2023/03/24 05:38:14;;;;;;;9.43;1.98;;;10.00;99.90;;;;;;5043618;28;20525;-63
2023/03/24 05:40:40;;;;;;;6.75;2.10;;;9.90;99.90;;;;;;5037609;28;20552;-63
2023/03/24 05:43:07;;;;;;;10.50;2.20;;;10.00;99.90;;;;;;5047952;28;20480;-64
2023/03/24 05:45:33;;;;;;;9.73;2.13;;;9.90;99.90;;;;;;5044791;28;20595;-63
2023/03/24 05:47:58;;;;;;;8.63;2.50;;;9.90;99.90;;;;;;5037502;28;20048;-66
2023/03/24 05:50:24;;;;;;;11.77;2.10;;;9.90;99.90;;;;;;5034430;28;20060;-66
2023/03/24 05:52:51;;;;;;;9.13;2.25;;;9.90;99.90;;;;;;5043167;28;20380;-64
2023/03/24 05:55:18;;;;;;;7.38;1.92;;;9.90;99.90;;;;;;5030506;28;20041;-64
2023/03/24 05:57:44;;;;;;;9.85;2.00;;;9.90;99.90;;;;;;5045354;28;20041;-66
2023/03/24 06:00:15;;;;;;;13.27;2.28;;;9.80;99.90;;;;;;5048506;28;20083;-65
2023/03/24 06:02:42;;;;;;;8.95;2.53;;;9.80;99.90;;;;;;5044226;28;20048;-64
2023/03/24 06:05:08;;;;;;;12.00;2.63;;;9.80;99.90;;;;;;5044142;28;20124;-66
2023/03/24 06:07:34;;;;;;;8.52;2.15;;;9.80;99.90;;;;;;5049918;28;20094;-64
2023/03/24 06:10:03;;;;;;;7.20;2.25;;;9.80;99.90;;;;;;5048271;28;20036;-64
2023/03/24 06:12:29;;;;;;;12.43;2.90;;;9.80;99.90;;;;;;5046438;28;20507;-64
2023/03/24 06:14:56;;;;;;;6.63;2.30;;;9.90;99.90;;;;;;5050474;28;20083;-65
2023/03/24 06:17:23;;;;;;;10.60;2.67;;;9.90;99.90;;;;;;5038944;28;20049;-64
2023/03/24 06:19:49;;;;;;;10.40;2.70;;;10.00;99.90;;;;;;5032948;28;20041;-63
2023/03/24 06:22:16;;;;;;;8.13;2.85;;;10.00;99.90;;;;;;5038299;28;20068;-64
2023/03/24 06:24:43;;;;;;;12.45;3.00;;;10.00;99.90;;;;;;5047609;28;20048;-67
2023/03/24 06:27:10;;;;;;;11.25;2.45;;;10.10;99.90;;;;;;5041349;28;20484;-64
2023/03/24 06:29:35;;;;;;;13.65;2.60;;;10.10;99.90;;;;;;5046408;28;20098;-66
2023/03/24 06:32:01;;;;;;;13.00;2.78;;;10.10;99.90;;;;;;5039031;28;20080;-64
2023/03/24 06:34:28;;;;;;;12.68;2.45;;;10.10;99.90;;;;;;5047816;28;20537;-64
2023/03/24 06:36:54;;;;;;;12.65;2.58;;;10.10;99.90;;;;;;5047056;28;20041;-65
2023/03/24 06:39:20;;;;;;;12.55;3.13;;;10.10;99.90;;;;;;5045409;28;20034;-64
2023/03/24 06:41:46;;;;;;;12.38;3.13;;;10.10;99.90;;;;;;5038406;28;20480;-64
2023/03/24 06:44:12;;;;;;;14.32;2.70;;;10.20;99.90;;;;;;5038393;28;20041;-64
2023/03/24 06:46:37;;;;;;;12.30;2.70;;;10.20;99.90;;;;;;5043499;28;20087;-65
2023/03/24 06:49:03;;;;;;;12.45;2.83;;;10.20;99.90;;;;;;5046336;28;20145;-65
2023/03/24 06:51:29;;;;;;;12.93;2.67;;;10.20;99.90;;;;;;5038686;28;20454;-64
2023/03/24 06:53:54;;;;;;;14.88;2.97;;;10.20;99.90;;;;;;5046929;28;20533;-66
2023/03/24 06:56:20;;;;;;;15.85;2.83;;;10.20;99.90;;;;;;5036006;28;20036;-65
2023/03/24 06:58:47;;;;;;;17.27;3.03;;;10.20;99.90;;;;;;5042326;28;20060;-66
2023/03/24 07:01:13;;;;;;;16.70;3.03;;;10.30;99.90;;;;;;5045261;28;20074;-66
2023/03/24 07:03:41;;;;;;;13.55;2.63;;;10.30;99.90;;;;;;5047466;28;20466;-66
2023/03/24 07:06:08;;;;;;;16.80;2.95;;;10.30;99.90;;;;;;5041863;28;20052;-66
2023/03/24 07:08:34;;;;;;;15.10;3.72;;;10.30;99.90;;;;;;5040483;28;20155;-66
2023/03/24 07:11:01;;;;;;;18.13;2.80;;;10.40;99.90;;;;;;5040074;28;20119;-65
2023/03/24 07:13:27;;;;;;;18.85;3.63;;;10.40;99.90;;;;;;5037878;28;20037;-66
2023/03/24 07:15:52;;;;;;;17.50;3.55;;;10.40;99.90;;;;;;5048973;28;20124;-65
2023/03/24 07:18:18;;;;;;;16.13;2.72;;;10.50;99.90;;;;;;5042953;28;20423;-65
2023/03/24 07:20:44;;;;;;;22.95;3.95;;;10.50;99.90;;;;;;5042607;28;20025;-64
2023/03/24 07:23:11;;;;;;;16.90;3.15;;;10.50;99.90;;;;;;5045988;28;20035;-64
2023/03/24 07:25:38;;;;;;;20.67;3.58;;;10.60;99.90;;;;;;5045062;28;20064;-66
2023/03/24 07:28:04;;;;;;;21.10;3.70;;;10.60;99.90;;;;;;5051046;28;20048;-66
2023/03/24 07:30:29;;;;;;;16.55;3.55;;;10.60;99.90;;;;;;5034959;28;20041;-66
2023/03/24 07:32:55;;;;;;;24.08;4.03;;;10.50;99.90;;;;;;5046859;28;20037;-66
2023/03/24 07:35:21;;;;;;;18.65;4.07;;;10.50;99.90;;;;;;5048873;28;20402;-66
2023/03/24 07:37:48;;;;;;;16.40;3.38;;;10.50;99.90;;;;;;5037597;28;20048;-66
2023/03/24 07:40:15;;;;;;;18.25;3.65;;;10.50;99.90;;;;;;5049960;28;20426;-66
2023/03/24 07:42:42;;;;;;;21.27;4.13;;;10.50;99.90;;;;;;5043332;28;20483;-66
2023/03/24 07:45:10;;;;;;;19.25;3.97;;;10.60;99.90;;;;;;5047267;28;20125;-64
2023/03/24 07:47:37;;;;;;;20.67;4.07;;;10.60;99.90;;;;;;5050394;28;20041;-67
2023/03/24 07:50:08;;;;;;;19.75;3.53;;;10.60;99.90;;;;;;5045352;28;20043;-66
2023/03/24 07:52:35;;;;;;;21.42;3.70;;;10.60;99.90;;;;;;5038096;28;20071;-66
2023/03/24 07:55:01;;;;;;;20.15;3.80;;;10.60;99.90;;;;;;5046395;28;20045;-66
2023/03/24 07:57:26;;;;;;;19.35;4.60;;;10.60;99.90;;;;;;5039326;28;20049;-66
2023/03/24 07:59:52;;;;;;;24.55;4.53;;;10.70;99.90;;;;;;5041443;28;20037;-66
2023/03/24 08:02:19;;;;;;;19.85;3.70;;;10.70;99.90;;;;;;5047570;28;20041;-66
2023/03/24 08:04:45;;;;;;;22.02;3.88;;;10.80;99.90;;;;;;5049758;28;20086;-66
2023/03/24 08:07:14;;;;;;;20.08;3.63;;;10.80;99.90;;;;;;5047654;28;20167;-66
2023/03/24 08:09:40;;;;;;;22.85;3.45;;;10.90;99.90;;;;;;5051419;28;20491;-66
2023/03/24 08:12:06;;;;;;;18.90;3.67;;;11.00;99.90;;;;;;5045089;28;20040;-64
2023/03/24 08:14:31;;;;;;;20.23;3.42;;;11.00;99.90;;;;;;5040515;28;20041;-66
2023/03/24 08:16:57;;;;;;;17.60;3.10;;;11.10;99.90;;;;;;5044947;28;20637;-67
2023/03/24 08:19:22;;;;;;;17.95;5.38;;;11.10;99.90;;;;;;5045279;28;20295;-67
2023/03/24 08:21:48;;;;;;;19.08;4.35;;;11.20;99.90;;;;;;5041845;28;20514;-64
2023/03/24 08:24:14;;;;;;;17.35;3.03;;;11.20;99.90;;;;;;5040175;28;20044;-65
2023/03/24 08:26:41;;;;;;;20.27;3.13;;;11.30;99.90;;;;;;5048577;28;20407;-67
2023/03/24 08:29:07;;;;;;;20.20;3.38;;;11.40;99.90;;;;;;5043876;28;20087;-65
2023/03/24 08:31:35;;;;;;;22.40;4.25;;;11.40;99.90;;;;;;5045196;28;20480;-63
2023/03/24 08:34:03;;;;;;;21.08;3.28;;;11.40;99.90;;;;;;5048051;28;20116;-64
2023/03/24 08:36:28;;;;;;;18.88;3.85;;;11.50;99.90;;;;;;5043020;28;20533;-63
2023/03/24 08:38:55;;;;;;;16.40;3.53;;;11.50;99.90;;;;;;5041471;28;20033;-65
2023/03/24 08:41:33;;;;;;;16.02;3.22;;;11.50;99.90;;;;;;5034620;28;20464;-64
2023/03/24 08:44:00;;;;;;;15.55;3.47;;;11.50;99.90;;;;;;5042349;28;20404;-64
2023/03/24 08:46:25;;;;;;;19.17;3.45;;;11.60;99.90;;;;;;5051183;28;20077;-63
2023/03/24 08:48:51;;;;;;;12.68;3.00;;;11.60;99.90;;;;;;5041114;28;20061;-63
2023/03/24 08:51:17;;;;;;;21.83;3.63;;;11.60;99.90;;;;;;5041820;28;20037;-63
2023/03/24 08:53:43;;;;;;;15.90;3.05;;;11.60;99.90;;;;;;5034488;28;20041;-65
2023/03/24 08:56:09;;;;;;;21.33;3.10;;;11.60;99.90;;;;;;5036348;28;20116;-65
2023/03/24 08:58:35;;;;;;;18.40;3.25;;;11.60;99.90;;;;;;5042051;28;20045;-67
2023/03/24 09:01:01;;;;;;;19.27;4.15;;;11.70;99.90;;;;;;5044226;28;20051;-66
2023/03/24 09:03:27;;;;;;;20.92;3.67;;;11.80;99.90;;;;;;5040115;28;20034;-68
2023/03/24 09:05:56;;;;;;;15.43;3.08;;;11.80;99.90;;;;;;5049444;28;20041;-67
2023/03/24 09:08:21;;;;;;;19.48;3.30;;;11.90;99.90;;;;;;5047235;28;20488;-64
2023/03/24 09:10:48;;;;;;;12.00;2.92;;;11.90;99.90;;;;;;5045090;28;20045;-64
2023/03/24 09:13:15;;;;;;;16.70;2.95;;;11.90;99.90;;;;;;5040560;28;20041;-64
2023/03/24 09:15:57;;;;;;;16.42;3.28;;;11.80;99.90;;;;;;5037411;28;20036;-65
2023/03/24 09:18:23;;;;;;;14.25;2.60;;;11.80;99.90;;;;;;5044195;28;20064;-64
2023/03/24 09:20:49;;;;;;;13.13;2.60;;;11.90;99.90;;;;;;5042260;28;20072;-63
2023/03/24 09:23:18;;;;;;;14.45;2.88;;;11.90;99.90;;;;;;5049032;28;20533;-63
2023/03/24 09:25:44;;;;;;;13.88;3.00;;;11.90;99.90;;;;;;5052701;28;20040;-64
2023/03/24 09:28:10;;;;;;;17.48;3.40;;;11.90;99.90;;;;;;5049368;28;20120;-64
2023/03/24 09:30:36;;;;;;;15.05;2.88;;;12.10;99.90;;;;;;5049489;28;20062;-63
2023/03/24 09:33:02;;;;;;;15.30;2.70;;;12.10;99.90;;;;;;5046655;28;20049;-63
2023/03/24 09:35:28;;;;;;;14.35;3.22;;;12.10;99.90;;;;;;5044851;28;20041;-64
2023/03/24 09:37:54;;;;;;;16.85;3.40;;;12.00;99.90;;;;;;5045478;28;20400;-64
2023/03/24 09:40:26;;;;;;;14.00;3.17;;;12.00;99.90;;;;;;5044978;28;20513;-63
2023/03/24 09:43:33;;;;;;;15.88;3.75;;;12.10;99.90;;;;;;5046240;28;20035;-64
2023/03/24 09:46:03;;;;;;;16.27;3.38;;;12.10;99.90;;;;;;4956300;28;20399;-63
2023/03/24 09:48:28;;;;;;;16.95;3.45;;;12.10;99.90;;;;;;4980996;28;20050;-64
2023/03/24 09:51:02;;;;;;;12.02;2.70;;;12.10;99.90;;;;;;5010507;28;20415;-64
2023/03/24 09:53:40;;;;;;;18.45;2.90;;;12.00;99.90;;;;;;5039996;28;20041;-64
2023/03/24 09:56:15;;;;;;;15.23;2.63;;;12.00;99.90;;;;;;5046373;28;20236;-64
2023/03/24 09:58:42;;;;;;;12.95;3.08;;;11.90;99.90;;;;;;5041452;28;20044;-64
2023/03/24 10:01:13;;;;;;;17.27;2.90;;;11.80;99.90;;;;;;5045758;28;20064;-63
2023/03/24 10:03:39;;;;;;;19.67;3.70;;;11.70;99.90;;;;;;5046608;28;20032;-64
2023/03/24 10:06:14;;;;;;;14.25;3.20;;;11.80;99.90;;;;;;5043866;28;20044;-64
2023/03/24 10:08:49;;;;;;;17.13;3.45;;;12.10;99.90;;;;;;5049803;28;20399;-65
2023/03/24 10:11:23;;;;;;;15.75;2.90;;;12.60;99.90;;;;;;5046409;28;20308;-64
2023/03/24 10:13:54;;;;;;;14.35;3.15;;;12.90;99.90;;;;;;5038418;28;20033;-64
2023/03/24 10:16:49;;;;;;;17.98;2.67;;;13.30;99.90;;;;;;5044870;28;20072;-64
2023/03/24 10:19:43;;;;;;;16.60;3.35;;;13.50;99.90;;;;;;5047421;28;20111;-64
2023/03/24 10:22:17;;;;;;;20.65;3.53;;;13.80;99.90;;;;;;5042178;28;20099;-64
2023/03/24 10:24:53;;;;;;;10.23;2.78;;;14.00;99.90;;;;;;5047929;28;20043;-64
2023/03/24 10:27:30;;;;;;;15.38;3.13;;;14.20;99.90;;;;;;5037742;28;20132;-64
2023/03/24 10:30:19;;;;;;;14.32;2.90;;;14.40;99.90;;;;;;5043969;28;20073;-64
2023/03/24 10:32:45;;;;;;;17.55;3.25;;;14.50;99.90;;;;;;5032296;28;20056;-64
2023/03/24 10:35:18;;;;;;;9.15;2.10;;;14.40;99.90;;;;;;5044668;28;20045;-64
2023/03/24 10:37:44;;;;;;;11.82;2.50;;;14.40;99.90;;;;;;5047887;28;20032;-64
2023/03/24 10:40:23;;;;;;;11.02;2.70;;;14.40;99.90;;;;;;5039953;28;20033;-64
2023/03/24 10:42:49;;;;;;;12.63;2.63;;;14.40;99.90;;;;;;5044883;28;20138;-63
2023/03/24 10:45:33;;;;;;;10.75;2.50;;;14.40;99.90;;;;;;5048156;28;20099;-64
2023/03/24 10:48:01;;;;;;;15.40;2.38;;;14.40;99.90;;;;;;5040638;28;20505;-64
2023/03/24 10:50:29;;;;;;;10.43;2.28;;;14.40;99.90;;;;;;5044601;28;20045;-63
2023/03/24 10:52:55;;;;;;;10.50;2.30;;;14.50;99.90;;;;;;5037556;28;20041;-64
2023/03/24 10:55:27;;;;;;;11.13;2.55;;;14.50;99.90;;;;;;5044140;28;20036;-64
2023/03/24 10:57:56;;;;;;;10.05;2.20;;;14.50;99.90;;;;;;5038161;28;20052;-63
2023/03/24 11:00:28;;;;;;;11.38;2.38;;;14.20;99.90;;;;;;5038481;28;20044;-63
2023/03/24 11:03:16;;;;;;;10.52;2.50;;;14.00;99.90;;;;;;5042973;28;20487;-63
2023/03/24 11:05:43;;;;;;;9.43;2.53;;;14.10;99.90;;;;;;5043095;28;20037;-63
2023/03/24 11:08:30;;;;;;;12.60;2.58;;;14.40;99.90;;;;;;5047834;28;20049;-63
2023/03/24 11:10:56;;;;;;;14.88;3.33;;;14.60;99.90;;;;;;5043352;28;20037;-64
2023/03/24 11:13:22;;;;;;;14.55;3.42;;;14.80;99.90;;;;;;5045464;28;20157;-64
2023/03/24 11:16:12;;;;;;;16.08;2.90;;;15.10;99.90;;;;;;5044417;28;20586;-64
2023/03/24 11:18:55;;;;;;;15.98;3.53;;;15.40;99.90;;;;;;5041539;28;20102;-64
2023/03/24 11:21:21;;;;;;;12.90;2.88;;;15.70;99.90;;;;;;5047522;28;20041;-63
2023/03/24 11:23:47;;;;;;;10.98;2.88;;;15.80;99.90;;;;;;5043425;28;20044;-63
2023/03/24 11:26:15;;;;;;;11.80;2.90;;;15.90;99.90;;;;;;5044846;28;20041;-63
2023/03/24 11:28:55;;;;;;;14.70;2.65;;;16.00;99.90;;;;;;5039922;28;20065;-63
2023/03/24 11:31:23;;;;;;;9.68;2.20;;;16.00;99.90;;;;;;5044157;28;20044;-62
2023/03/24 11:34:18;;;;;;;10.98;2.35;;;15.90;99.90;;;;;;5044535;28;20407;-63
2023/03/24 11:36:55;;;;;;;7.82;2.50;;;15.80;99.90;;;;;;5038038;28;20423;-63
2023/03/24 11:39:25;;;;;;;10.90;2.70;;;15.60;99.90;;;;;;5039575;28;20067;-63
2023/03/24 11:42:02;;;;;;;10.15;2.65;;;15.60;99.90;;;;;;5042821;28;20044;-63
2023/03/24 11:44:45;;;;;;;12.57;2.63;;;15.50;99.90;;;;;;5037062;28;20049;-63
2023/03/24 11:47:29;;;;;;;9.82;2.72;;;15.60;99.90;;;;;;5033571;28;20049;-62
2023/03/24 11:50:06;;;;;;;9.90;2.70;;;15.80;99.90;;;;;;5040363;28;20072;-63
2023/03/24 11:52:58;;;;;;;10.18;2.45;;;15.80;99.90;;;;;;5042511;28;20053;-62
2023/03/24 11:55:48;;;;;;;11.60;2.28;;;15.90;99.90;;;;;;5033571;28;20064;-63
2023/03/24 11:58:43;;;;;;;12.38;2.47;;;15.90;99.90;;;;;;5040971;28;20060;-63
2023/03/24 12:01:21;;;;;;;13.25;2.78;;;15.90;99.90;;;;;;5038157;28;20037;-63
2023/03/24 12:04:18;;;;;;;9.70;2.42;;;15.80;99.90;;;;;;5042777;28;20056;-63
2023/03/24 12:07:08;;;;;;;11.98;2.58;;;15.80;99.90;;;;;;5038221;28;20099;-63
2023/03/24 12:09:53;;;;;;;8.82;2.20;;;15.90;99.90;;;;;;5041804;28;20052;-63
2023/03/24 12:12:35;;;;;;;10.25;2.20;;;16.00;99.90;;;;;;5047002;28;20053;-63
2023/03/24 12:15:40;;;;;;;6.97;2.10;;;16.00;99.90;;;;;;5042032;28;20036;-63
2023/03/24 12:18:14;;;;;;;11.80;2.38;;;15.90;99.90;;;;;;5043231;28;20045;-63
2023/03/24 12:20:46;;;;;;;6.97;1.80;;;15.90;99.90;;;;;;5045244;28;20151;-63
2023/03/24 12:23:51;;;;;;;12.45;2.38;;;15.90;98.90;;;;;;5044327;28;20102;-63
2023/03/24 12:26:28;;;;;;;13.25;2.60;;;15.80;99.90;;;;;;5026750;28;20053;-63
2023/03/24 12:29:04;;;;;;;11.85;3.03;;;15.70;99.10;;;;;;5047303;28;20131;-63
2023/03/24 12:31:55;;;;;;;11.85;2.83;;;15.50;99.70;;;;;;5037917;28;20099;-63
2023/03/24 12:34:33;;;;;;;12.00;2.60;;;15.20;99.90;;;;;;5047928;28;20037;-62
2023/03/24 12:37:17;;;;;;;11.23;2.83;;;15.10;99.90;;;;;;5048839;28;20045;-62
2023/03/24 12:39:57;;;;;;;14.48;3.50;;;15.10;99.90;;;;;;5046248;28;20044;-62
2023/03/24 12:42:25;;;;;;;13.70;3.03;;;15.10;99.90;;;;;;5046019;28;20071;-62
2023/03/24 12:44:50;;;;;;;14.55;3.85;;;15.10;99.90;;;;;;5044906;28;20034;-63
2023/03/24 12:47:43;;;;;;;14.18;3.00;;;15.10;99.90;;;;;;5046376;28;20183;-62
2023/03/24 12:50:16;;;;;;;11.07;2.70;;;15.10;99.90;;;;;;5083052;22;20044;-74
2023/03/24 12:52:52;;;;;;;14.00;3.03;;;15.30;99.90;;;;;;5052373;28;20400;-74
2023/03/24 12:55:36;;;;;;;10.20;2.63;;;16.10;99.90;;;;;;5054486;28;20037;-75
2023/03/24 12:58:19;;;;;;;15.98;3.13;;;15.40;99.90;;;;;;5051159;28;20048;-75
2023/03/24 13:00:52;;;;;;;15.90;3.08;;;15.50;99.90;;;;;;5058343;28;20034;-75
2023/03/24 13:03:25;;;;;;;17.33;3.20;;;15.40;99.90;;;;;;5071218;28;20035;-76
2023/03/24 13:05:57;;;;;;;12.23;2.80;;;15.30;99.90;;;;;;5064726;28;20032;-75